createdAt,value
2022-07-28T00:00:03.180Z,32.93
2022-07-28T00:02:31.602Z,33.11
2022-07-28T00:04:59.127Z,32.98
2022-07-28T00:07:26.379Z,32.73
2022-07-28T00:09:58.234Z,33.25
2022-07-28T00:12:27.493Z,33.27
2022-07-28T00:14:55.105Z,33.31
2022-07-28T00:17:21.888Z,33.28
2022-07-28T00:19:50.996Z,33.40
2022-07-28T00:22:18.608Z,33.45
2022-07-28T00:24:45.446Z,33.83
2022-07-28T00:27:12.684Z,34.07
2022-07-28T00:29:39.458Z,34.23
2022-07-28T00:32:17.732Z,33.98
2022-07-28T00:34:44.830Z,35.07
2022-07-28T00:37:13.379Z,34.64
2022-07-28T00:39:42.301Z,34.67
2022-07-28T00:42:09.231Z,34.81
2022-07-28T00:44:39.038Z,34.80
2022-07-28T00:47:05.843Z,34.74
2022-07-28T00:49:32.914Z,34.69
2022-07-28T00:52:00.570Z,34.66
2022-07-28T00:54:28.163Z,34.77
2022-07-28T00:56:55.149Z,34.90
2022-07-28T00:59:21.868Z,35.20
2022-07-28T01:01:49.078Z,35.25
2022-07-28T01:04:16.982Z,34.86
2022-07-28T01:07:18.567Z,35.50
2022-07-28T01:10:13.374Z,35.34
2022-07-28T01:13:03.047Z,35.01
2022-07-28T01:15:29.505Z,35.46
2022-07-28T01:18:10.466Z,35.71
2022-07-28T01:20:54.176Z,35.71
2022-07-28T01:23:48.719Z,35.38
2022-07-28T01:26:39.774Z,35.90
2022-07-28T01:29:48.170Z,35.54
2022-07-28T01:32:27.338Z,35.82
2022-07-28T01:35:11.769Z,35.75
2022-07-28T01:37:45.807Z,35.43
2022-07-28T01:40:16.744Z,35.55
2022-07-28T01:42:54.341Z,35.51
2022-07-28T01:45:21.647Z,35.26
2022-07-28T01:47:49.967Z,35.26
2022-07-28T01:50:21.214Z,35.19
2022-07-28T01:52:49.834Z,34.88
2022-07-28T01:55:20.376Z,35.28
2022-07-28T01:57:49.029Z,35.31
2022-07-28T02:00:16.293Z,35.29
2022-07-28T02:02:45.884Z,35.46
2022-07-28T02:05:15.984Z,35.27
2022-07-28T02:07:48.277Z,35.32
2022-07-28T02:10:17.779Z,35.24
2022-07-28T02:12:46.906Z,35.62
2022-07-28T02:15:15.870Z,35.43
2022-07-28T02:17:45.892Z,35.20
2022-07-28T02:20:14.995Z,35.39
2022-07-28T02:22:43.748Z,35.34
2022-07-28T02:25:10.911Z,35.92
2022-07-28T02:28:01.922Z,35.74
2022-07-28T02:30:35.952Z,36.33
2022-07-28T02:33:08.309Z,36.38
2022-07-28T02:35:57.526Z,36.64
2022-07-28T02:38:30.374Z,35.61
2022-07-28T02:41:01.122Z,35.91
2022-07-28T02:43:50.138Z,35.86
2022-07-28T02:46:20.140Z,36.20
2022-07-28T02:48:52.544Z,36.12
2022-07-28T02:51:23.549Z,36.21
2022-07-28T02:53:51.088Z,36.17
2022-07-28T02:56:18.309Z,36.25
2022-07-28T02:58:46.788Z,36.28
2022-07-28T03:01:17.461Z,35.98
2022-07-28T03:03:45.992Z,36.07
2022-07-28T03:06:13.006Z,36.09
2022-07-28T03:08:39.662Z,36.45
2022-07-28T03:11:10.908Z,36.39
2022-07-28T03:13:39.684Z,36.54
2022-07-28T03:16:07.346Z,36.69
2022-07-28T03:18:34.189Z,36.17
2022-07-28T03:21:01.017Z,36.26
2022-07-28T03:23:35.014Z,36.34
2022-07-28T03:26:06.823Z,36.35
2022-07-28T03:28:34.149Z,36.36
2022-07-28T03:31:05.677Z,36.22
2022-07-28T03:33:33.471Z,36.49
2022-07-28T03:36:04.753Z,36.43
2022-07-28T03:38:41.081Z,36.67
2022-07-28T03:41:10.061Z,36.41
2022-07-28T03:43:38.148Z,37.44
2022-07-28T03:46:07.570Z,37.33
2022-07-28T03:48:37.876Z,37.66
2022-07-28T03:51:04.521Z,37.32
2022-07-28T03:53:31.395Z,37.11
2022-07-28T03:55:58.335Z,37.15
2022-07-28T03:58:28.837Z,37.21
2022-07-28T04:00:56.606Z,37.44
2022-07-28T04:03:37.656Z,37.43
2022-07-28T04:06:10.935Z,37.32
2022-07-28T04:08:37.666Z,37.28
2022-07-28T04:11:04.538Z,37.59
2022-07-28T04:13:36.573Z,37.49
2022-07-28T04:16:04.527Z,37.67
2022-07-28T04:18:31.253Z,37.63
2022-07-28T04:20:58.748Z,37.63
2022-07-28T04:23:25.488Z,37.35
2022-07-28T04:25:52.214Z,37.06
2022-07-28T04:28:18.946Z,37.02
2022-07-28T04:30:46.124Z,37.34
2022-07-28T04:33:12.936Z,37.09
2022-07-28T04:35:39.644Z,37.16
2022-07-28T04:38:06.418Z,37.21
2022-07-28T04:40:34.409Z,36.94
2022-07-28T04:43:01.354Z,36.89
2022-07-28T04:45:28.151Z,36.56
2022-07-28T04:47:54.714Z,37.07
2022-07-28T04:50:21.639Z,36.81
2022-07-28T04:52:57.619Z,36.91
2022-07-28T04:55:25.135Z,36.95
2022-07-28T04:57:51.871Z,36.65
2022-07-28T05:00:19.980Z,36.39
2022-07-28T05:02:49.548Z,37.01
2022-07-28T05:05:16.249Z,36.74
2022-07-28T05:07:43.378Z,36.11
2022-07-28T05:10:11.965Z,36.29
2022-07-28T05:12:38.994Z,36.14
2022-07-28T05:15:06.685Z,36.26
2022-07-28T05:17:33.375Z,35.58
2022-07-28T05:20:00.085Z,35.97
2022-07-28T05:22:26.841Z,35.52
2022-07-28T05:24:53.552Z,35.86
2022-07-28T05:27:20.284Z,35.53
2022-07-28T05:29:48.082Z,35.68
2022-07-28T05:32:17.260Z,36.09
2022-07-28T05:34:45.338Z,35.27
2022-07-28T05:37:12.241Z,35.85
2022-07-28T05:39:39.055Z,35.47
2022-07-28T05:42:06.123Z,35.52
2022-07-28T05:44:37.813Z,35.86
2022-07-28T05:47:05.031Z,36.27
2022-07-28T05:49:31.689Z,35.65
2022-07-28T05:51:58.349Z,35.45
2022-07-28T05:54:25.249Z,35.49
2022-07-28T05:56:52.776Z,35.27
2022-07-28T05:59:19.439Z,35.11
2022-07-28T06:01:46.739Z,35.05
2022-07-28T06:04:29.670Z,34.97
2022-07-28T06:06:56.506Z,34.86
2022-07-28T06:09:23.157Z,34.42
2022-07-28T06:11:50.507Z,33.95
2022-07-28T06:14:18.322Z,34.33
2022-07-28T06:16:45.431Z,34.22
2022-07-28T06:19:12.221Z,34.42
2022-07-28T06:21:38.888Z,34.43
2022-07-28T06:24:08.425Z,34.09
2022-07-28T06:26:43.661Z,33.80
2022-07-28T06:29:11.266Z,33.39
2022-07-28T06:31:38.951Z,33.30
2022-07-28T06:34:06.031Z,33.52
2022-07-28T06:36:32.680Z,33.09
2022-07-28T06:38:59.359Z,33.19
2022-07-28T06:41:26.060Z,33.12
2022-07-28T06:43:52.739Z,32.91
2022-07-28T06:46:19.987Z,32.52
2022-07-28T06:48:46.909Z,32.60
2022-07-28T06:51:18.969Z,31.89
2022-07-28T06:53:48.457Z,31.87
2022-07-28T06:56:15.822Z,32.25
2022-07-28T06:58:43.857Z,31.88
2022-07-28T07:01:15.019Z,31.37
2022-07-28T07:03:43.186Z,31.24
2022-07-28T07:06:10.910Z,31.74
2022-07-28T07:08:38.290Z,31.46
2022-07-28T07:11:05.093Z,31.17
2022-07-28T07:13:33.139Z,31.36
2022-07-28T07:16:00.364Z,31.27
2022-07-28T07:18:27.256Z,31.22
2022-07-28T07:20:54.768Z,30.54
2022-07-28T07:23:21.511Z,30.08
2022-07-28T07:25:48.289Z,29.74
2022-07-28T07:28:14.906Z,29.83
2022-07-28T07:30:41.729Z,30.21
2022-07-28T07:33:09.694Z,29.48
2022-07-28T07:35:37.977Z,28.64
2022-07-28T07:38:04.897Z,28.94
2022-07-28T07:40:32.063Z,28.50
2022-07-28T07:42:58.699Z,29.01
2022-07-28T07:45:25.344Z,27.76
2022-07-28T07:47:52.040Z,28.27
2022-07-28T07:50:18.786Z,29.21
2022-07-28T07:52:45.498Z,29.19
2022-07-28T07:55:12.227Z,29.89
2022-07-28T07:57:38.932Z,29.85
2022-07-28T08:00:07.608Z,29.78
2022-07-28T08:02:54.361Z,29.74
2022-07-28T08:05:21.136Z,29.37
2022-07-28T08:08:02.138Z,29.77
2022-07-28T08:10:29.051Z,29.51
2022-07-28T08:12:55.752Z,29.41
2022-07-28T08:15:22.456Z,28.54
2022-07-28T08:17:49.262Z,28.24
2022-07-28T08:20:15.891Z,27.27
2022-07-28T08:22:54.935Z,27.52
2022-07-28T08:25:22.250Z,26.90
2022-07-28T08:27:49.033Z,26.71
2022-07-28T08:30:21.695Z,26.60
2022-07-28T08:32:56.462Z,27.38
2022-07-28T08:35:34.116Z,27.45
2022-07-28T08:38:02.834Z,23.91
2022-07-28T08:40:32.164Z,18.60
2022-07-28T08:43:13.892Z,15.77
2022-07-28T08:45:44.457Z,14.66
2022-07-28T08:48:12.216Z,13.00
2022-07-28T08:50:39.550Z,13.01
2022-07-28T08:53:07.858Z,14.04
2022-07-28T08:55:36.461Z,14.91
2022-07-28T08:58:03.987Z,13.35
2022-07-28T09:00:30.684Z,13.19
2022-07-28T09:02:58.359Z,14.67
2022-07-28T09:05:25.132Z,17.13
2022-07-28T09:07:55.606Z,19.43
2022-07-28T09:10:23.044Z,19.70
2022-07-28T09:12:49.834Z,21.17
2022-07-28T09:15:16.657Z,21.55
2022-07-28T09:17:43.499Z,19.56
2022-07-28T09:20:12.005Z,16.29
2022-07-28T09:23:41.854Z,12.82
2022-07-28T09:26:11.397Z,10.32
2022-07-28T09:28:57.263Z,8.38
2022-07-28T09:31:26.300Z,8.58
2022-07-28T09:34:01.546Z,8.85
2022-07-28T09:36:30.071Z,8.05
2022-07-28T09:38:57.109Z,7.32
2022-07-28T09:41:24.042Z,6.97
2022-07-28T09:43:55.346Z,6.19
2022-07-28T09:46:25.681Z,5.99
2022-07-28T09:49:00.557Z,6.66
2022-07-28T09:51:33.411Z,7.31
2022-07-28T09:54:14.525Z,7.79
2022-07-28T09:56:45.611Z,7.64
2022-07-28T09:59:14.997Z,8.74
2022-07-28T10:01:59.174Z,7.71
2022-07-28T10:04:42.053Z,6.80
2022-07-28T10:07:11.387Z,5.95
2022-07-28T10:09:39.131Z,5.88
2022-07-28T10:12:19.438Z,5.93
2022-07-28T10:14:47.378Z,6.02
2022-07-28T10:17:29.283Z,7.15
2022-07-28T10:20:06.988Z,7.53
2022-07-28T10:22:39.504Z,8.96
2022-07-28T10:25:12.581Z,10.37
2022-07-28T10:27:41.922Z,12.96
2022-07-28T10:30:09.547Z,12.85
2022-07-28T10:32:43.152Z,12.98
2022-07-28T10:35:14.708Z,12.60
2022-07-28T10:37:54.238Z,12.29
2022-07-28T10:40:25.512Z,12.98
2022-07-28T10:42:53.218Z,13.69
2022-07-28T10:45:20.361Z,13.70
2022-07-28T10:47:48.165Z,14.69
2022-07-28T10:50:16.130Z,14.10
2022-07-28T10:52:49.896Z,14.11
2022-07-28T10:55:33.365Z,14.33
2022-07-28T10:58:13.705Z,13.27
2022-07-28T11:00:56.004Z,12.35
2022-07-28T11:03:47.151Z,11.95
2022-07-28T11:06:36.990Z,12.45
2022-07-28T11:09:15.655Z,11.71
2022-07-28T11:11:46.059Z,9.94
2022-07-28T11:14:37.175Z,8.75
2022-07-28T11:17:04.142Z,7.43
2022-07-28T11:20:00.808Z,6.76
2022-07-28T11:22:33.642Z,6.58
2022-07-28T11:25:19.149Z,6.16
2022-07-28T11:27:50.686Z,6.96
2022-07-28T11:30:32.958Z,6.79
2022-07-28T11:33:01.161Z,7.79
2022-07-28T11:35:33.274Z,8.49
2022-07-28T11:38:03.016Z,8.70
2022-07-28T11:40:32.700Z,8.23
2022-07-28T11:43:22.191Z,7.58
2022-07-28T11:45:55.454Z,7.88
2022-07-28T11:48:23.271Z,8.23
2022-07-28T11:51:05.205Z,9.24
2022-07-28T11:53:42.995Z,8.81
2022-07-28T11:56:15.359Z,8.28
2022-07-28T11:58:43.254Z,8.46
2022-07-28T12:01:18.105Z,8.75
2022-07-28T12:03:49.998Z,9.07
2022-07-28T12:06:27.201Z,9.76
2022-07-28T12:08:59.502Z,10.86
2022-07-28T12:11:31.768Z,11.34
2022-07-28T12:14:04.432Z,11.52
2022-07-28T12:16:32.688Z,11.30
2022-07-28T12:19:01.821Z,11.64
2022-07-28T12:21:47.785Z,12.93
2022-07-28T12:24:28.353Z,13.97
2022-07-28T12:26:57.666Z,14.18
2022-07-28T12:29:35.892Z,15.40
2022-07-28T12:32:09.946Z,15.92
2022-07-28T12:34:39.721Z,16.66
2022-07-28T12:37:09.836Z,16.24
2022-07-28T12:39:39.782Z,16.70
2022-07-28T12:42:08.881Z,17.25
2022-07-28T12:44:43.757Z,17.41
2022-07-28T12:47:15.539Z,17.87
2022-07-28T12:49:44.015Z,17.63
2022-07-28T12:52:22.238Z,17.99
2022-07-28T12:54:55.660Z,18.09
2022-07-28T12:57:48.704Z,17.86
2022-07-28T13:00:20.834Z,17.80
2022-07-28T13:02:49.618Z,17.96
2022-07-28T13:05:56.403Z,17.88
2022-07-28T13:08:24.606Z,18.25
2022-07-28T13:10:56.620Z,18.21
2022-07-28T13:13:24.434Z,18.05
2022-07-28T13:16:17.161Z,17.96
2022-07-28T13:18:53.472Z,17.89
2022-07-28T13:21:58.816Z,17.61
2022-07-28T13:24:27.568Z,17.90
2022-07-28T13:26:54.822Z,18.05
2022-07-28T13:29:22.490Z,17.90
2022-07-28T13:31:50.235Z,17.83
2022-07-28T13:34:17.167Z,18.54
2022-07-28T13:36:44.060Z,18.26
2022-07-28T13:39:10.917Z,18.65
2022-07-28T13:41:57.971Z,19.00
2022-07-28T13:44:24.426Z,18.99
2022-07-28T13:46:51.631Z,18.67
2022-07-28T13:49:21.281Z,18.88
2022-07-28T13:51:50.983Z,19.37
2022-07-28T13:54:19.517Z,19.16
2022-07-28T13:57:05.687Z,19.11
2022-07-28T13:59:32.459Z,19.61
2022-07-28T14:02:03.292Z,19.73
2022-07-28T14:04:30.039Z,19.40
2022-07-28T14:06:56.651Z,19.04
2022-07-28T14:09:23.385Z,19.36
2022-07-28T14:11:53.587Z,19.02
2022-07-28T14:14:24.955Z,19.28
2022-07-28T14:16:54.560Z,19.31
2022-07-28T14:19:38.996Z,19.62
2022-07-28T14:22:13.755Z,19.63
2022-07-28T14:24:42.189Z,20.04
2022-07-28T14:27:10.306Z,19.92
2022-07-28T14:29:37.807Z,20.57
2022-07-28T14:32:04.795Z,20.78
2022-07-28T14:34:31.579Z,20.59
2022-07-28T14:37:01.280Z,20.96
2022-07-28T14:39:34.000Z,21.33
2022-07-28T14:42:00.653Z,21.59
2022-07-28T14:44:27.696Z,21.41
2022-07-28T14:46:54.465Z,21.13
2022-07-28T14:49:21.352Z,21.74
2022-07-28T14:51:48.122Z,21.47
2022-07-28T14:54:15.325Z,21.26
2022-07-28T14:56:42.348Z,21.63
2022-07-28T14:59:09.535Z,21.38
2022-07-28T15:01:36.617Z,20.99
2022-07-28T15:04:04.756Z,21.61
2022-07-28T15:06:31.540Z,21.22
2022-07-28T15:08:58.475Z,20.99
2022-07-28T15:11:26.088Z,21.05
2022-07-28T15:13:52.826Z,21.44
2022-07-28T15:16:19.837Z,21.09
2022-07-28T15:18:46.562Z,21.25
2022-07-28T15:21:16.698Z,21.39
2022-07-28T15:23:44.141Z,21.36
2022-07-28T15:26:11.313Z,20.81
2022-07-28T15:28:38.578Z,21.63
2022-07-28T15:31:08.393Z,20.79
2022-07-28T15:33:41.080Z,20.89
2022-07-28T15:36:15.693Z,21.05
2022-07-28T15:38:47.544Z,20.69
2022-07-28T15:41:16.499Z,20.66
2022-07-28T15:43:43.894Z,21.00
2022-07-28T15:46:13.054Z,21.43
2022-07-28T15:48:41.754Z,21.09
2022-07-28T15:51:09.108Z,21.81
2022-07-28T15:53:36.854Z,21.44
2022-07-28T15:56:04.681Z,21.69
2022-07-28T15:58:31.937Z,21.38
2022-07-28T16:00:59.291Z,21.72
2022-07-28T16:03:28.955Z,21.57
2022-07-28T16:05:56.053Z,21.68
2022-07-28T16:08:23.317Z,21.76
2022-07-28T16:10:51.519Z,22.42
2022-07-28T16:13:31.230Z,22.48
2022-07-28T16:16:22.016Z,22.33
2022-07-28T16:18:49.218Z,22.86
2022-07-28T16:21:15.932Z,22.43
2022-07-28T16:23:42.713Z,22.62
2022-07-28T16:26:10.641Z,22.51
2022-07-28T16:28:37.506Z,22.33
2022-07-28T16:31:04.545Z,22.78
2022-07-28T16:33:33.802Z,22.83
2022-07-28T16:36:02.142Z,22.45
2022-07-28T16:38:28.878Z,23.08
2022-07-28T16:40:57.084Z,23.29
2022-07-28T16:43:23.714Z,23.31
2022-07-28T16:45:50.339Z,23.43
2022-07-28T16:48:17.319Z,22.79
2022-07-28T16:50:46.178Z,23.05
2022-07-28T16:53:13.943Z,23.04
2022-07-28T16:55:42.262Z,22.75
2022-07-28T16:58:09.165Z,23.19
2022-07-28T17:00:36.002Z,22.88
2022-07-28T17:03:02.750Z,23.63
2022-07-28T17:05:29.510Z,23.28
2022-07-28T17:07:56.254Z,23.61
2022-07-28T17:10:27.026Z,23.37
2022-07-28T17:12:54.487Z,23.51
2022-07-28T17:15:22.617Z,23.33
2022-07-28T17:17:51.072Z,23.45
2022-07-28T17:20:19.107Z,23.09
2022-07-28T17:22:45.854Z,23.46
2022-07-28T17:27:59.540Z,23.90
2022-07-28T17:30:26.572Z,23.87
2022-07-28T17:32:58.969Z,24.02
2022-07-28T17:35:34.477Z,23.99
2022-07-28T17:38:03.377Z,24.10
2022-07-28T17:40:30.292Z,24.41
2022-07-28T17:42:57.139Z,24.08
2022-07-28T17:45:26.565Z,24.53
2022-07-28T17:47:53.253Z,24.18
2022-07-28T17:50:20.454Z,24.39
2022-07-28T17:52:47.256Z,24.10
2022-07-28T17:55:37.479Z,24.10
2022-07-28T17:58:27.919Z,24.71
2022-07-28T18:01:09.629Z,24.83
2022-07-28T18:03:59.387Z,25.36
2022-07-28T18:06:36.956Z,24.84
2022-07-28T18:09:07.861Z,25.04
2022-07-28T18:11:36.923Z,25.08
2022-07-28T18:14:22.126Z,25.31
2022-07-28T18:16:48.823Z,25.61
2022-07-28T18:19:15.569Z,25.43
2022-07-28T18:21:43.617Z,25.50
2022-07-28T18:24:10.315Z,25.39
2022-07-28T18:26:36.977Z,25.78
2022-07-28T18:29:03.732Z,25.68
2022-07-28T18:31:30.955Z,25.91
2022-07-28T18:33:57.665Z,25.43
2022-07-28T18:36:24.385Z,25.37
2022-07-28T18:38:51.053Z,25.22
2022-07-28T18:41:17.910Z,25.98
2022-07-28T18:43:44.601Z,25.05
2022-07-28T18:46:11.396Z,25.39
2022-07-28T18:48:38.246Z,25.54
2022-07-28T18:51:05.238Z,25.57
2022-07-28T18:53:31.899Z,26.15
2022-07-28T18:55:58.609Z,26.21
2022-07-28T18:58:25.345Z,25.67
2022-07-28T19:00:52.148Z,26.22
2022-07-28T19:03:18.995Z,25.95
2022-07-28T19:05:46.471Z,26.62
2022-07-28T19:08:13.749Z,26.56
2022-07-28T19:10:40.538Z,26.66
2022-07-28T19:13:12.508Z,26.71
2022-07-28T19:15:40.918Z,26.46
2022-07-28T19:18:10.065Z,25.97
2022-07-28T19:20:39.863Z,26.43
2022-07-28T19:23:06.855Z,26.92
2022-07-28T19:25:35.798Z,26.95
2022-07-28T19:28:02.797Z,26.46
2022-07-28T19:30:32.006Z,26.90
2022-07-28T19:32:59.078Z,26.67
2022-07-28T19:35:26.330Z,27.02
2022-07-28T19:37:53.246Z,27.82
2022-07-28T19:40:19.991Z,27.15
2022-07-28T19:42:48.598Z,26.89
2022-07-28T19:45:15.571Z,27.16
2022-07-28T19:47:42.643Z,27.65
2022-07-28T19:50:09.620Z,28.04
2022-07-28T19:52:37.630Z,27.54
2022-07-28T19:55:05.952Z,27.74
2022-07-28T19:57:34.462Z,27.69
2022-07-28T20:00:04.578Z,27.59
2022-07-28T20:02:38.805Z,28.01
2022-07-28T20:05:06.793Z,28.48
2022-07-28T20:07:33.574Z,28.33
2022-07-28T20:10:01.033Z,28.42
2022-07-28T20:12:32.824Z,28.69
2022-07-28T20:15:03.835Z,28.58
2022-07-28T20:17:38.632Z,28.92
2022-07-28T20:20:13.105Z,29.07
2022-07-28T20:22:41.451Z,29.75
2022-07-28T20:25:10.104Z,29.76
2022-07-28T20:27:41.595Z,29.70
2022-07-28T20:30:10.270Z,29.63
2022-07-28T20:32:38.182Z,30.02
2022-07-28T20:35:06.821Z,30.09
2022-07-28T20:37:36.047Z,29.97
2022-07-28T20:40:08.522Z,30.64
2022-07-28T20:42:36.767Z,30.37
2022-07-28T20:45:04.532Z,30.26
2022-07-28T20:47:32.826Z,30.73
2022-07-28T20:50:00.826Z,30.52
2022-07-28T20:52:27.743Z,30.60
2022-07-28T20:54:55.183Z,30.57
2022-07-28T20:57:25.150Z,31.33
2022-07-28T20:59:52.102Z,30.79
2022-07-28T21:02:23.224Z,31.06
2022-07-28T21:04:50.836Z,31.11
2022-07-28T21:08:04.684Z,31.14
2022-07-28T21:10:08.220Z,31.23
2022-07-28T21:12:37.133Z,31.12
2022-07-28T21:15:05.976Z,31.17
2022-07-28T21:17:32.815Z,31.14
2022-07-28T21:19:59.763Z,31.51
2022-07-28T21:22:27.068Z,31.40
2022-07-28T21:24:55.564Z,31.33
2022-07-28T21:27:23.915Z,31.21
2022-07-28T21:32:18.395Z,31.60
2022-07-28T21:34:45.558Z,31.44
2022-07-28T21:37:13.089Z,31.22
2022-07-28T21:39:40.532Z,31.13
2022-07-28T21:42:09.126Z,31.60
2022-07-28T21:44:37.587Z,31.43
2022-07-28T21:47:04.406Z,31.62
2022-07-28T21:49:32.271Z,31.86
2022-07-28T21:51:59.580Z,31.60
2022-07-28T21:54:26.747Z,31.39
2022-07-28T21:56:53.548Z,31.87
2022-07-28T21:59:20.243Z,31.68
2022-07-28T22:01:47.701Z,31.50
2022-07-28T22:04:15.197Z,31.25
2022-07-28T22:06:46.086Z,31.77
2022-07-28T22:09:14.379Z,31.67
2022-07-28T22:11:41.371Z,31.44
2022-07-28T22:14:08.105Z,31.28
2022-07-28T22:16:35.077Z,31.87
2022-07-28T22:19:01.884Z,31.26
2022-07-28T22:21:28.634Z,31.70
2022-07-28T22:23:55.912Z,31.67
2022-07-28T22:26:23.516Z,31.35
2022-07-28T22:28:50.248Z,31.59
2022-07-28T22:31:17.182Z,31.64
2022-07-28T22:33:43.935Z,31.99
2022-07-28T22:36:10.846Z,32.42
2022-07-28T22:38:37.895Z,32.06
2022-07-28T22:41:04.577Z,32.52
2022-07-28T22:43:33.549Z,32.78
2022-07-28T22:46:00.430Z,32.57
2022-07-28T22:48:27.338Z,32.28
2022-07-28T22:50:53.978Z,31.87
2022-07-28T22:53:20.606Z,31.07
2022-07-28T22:55:47.287Z,31.40
2022-07-28T22:58:13.947Z,30.51
2022-07-28T23:00:40.606Z,31.02
2022-07-28T23:03:07.292Z,30.51
2022-07-28T23:05:39.738Z,30.74
2022-07-28T23:08:06.451Z,31.20
2022-07-28T23:10:33.297Z,31.21
2022-07-28T23:13:00.323Z,31.17
2022-07-28T23:15:40.638Z,31.43
2022-07-28T23:18:11.932Z,32.12
2022-07-28T23:20:39.962Z,32.45
2022-07-28T23:23:07.184Z,32.75
2022-07-28T23:25:36.609Z,32.94
2022-07-28T23:28:03.508Z,33.96
2022-07-28T23:30:30.181Z,33.98
2022-07-28T23:32:56.964Z,33.64
2022-07-28T23:35:23.836Z,33.13
2022-07-28T23:37:50.576Z,33.17
2022-07-28T23:40:17.473Z,33.35
2022-07-28T23:42:44.177Z,32.98
2022-07-28T23:45:11.194Z,33.16
2022-07-28T23:47:37.941Z,33.61
2022-07-28T23:50:05.509Z,33.11
2022-07-28T23:52:32.333Z,33.44
2022-07-28T23:54:59.007Z,33.77
2022-07-28T23:57:25.759Z,33.31
2022-07-28T23:59:58.981Z,33.76
